createdAt,value
2017-11-07T00:00:48.850Z,0.00
2017-11-07T00:01:48.847Z,0.00
2017-11-07T00:02:48.847Z,0.00
2017-11-07T00:03:48.839Z,0.00
2017-11-07T00:04:48.845Z,0.00
2017-11-07T00:05:48.838Z,0.00
2017-11-07T00:06:48.830Z,0.00
2017-11-07T00:07:48.825Z,0.00
2017-11-07T00:08:48.818Z,0.00
2017-11-07T00:09:48.813Z,0.00
2017-11-07T00:10:48.814Z,0.00
2017-11-07T00:11:48.812Z,0.00
2017-11-07T00:12:48.810Z,0.00
2017-11-07T00:13:48.807Z,0.00
2017-11-07T00:14:48.797Z,0.00
2017-11-07T00:15:48.796Z,0.00
2017-11-07T00:16:48.796Z,0.00
2017-11-07T00:17:48.787Z,0.00
2017-11-07T00:18:48.833Z,0.00
2017-11-07T00:19:48.780Z,0.00
2017-11-07T00:20:48.776Z,0.00
2017-11-07T00:21:48.777Z,0.00
2017-11-07T00:22:48.777Z,0.00
2017-11-07T00:23:48.761Z,0.00
2017-11-07T00:24:48.767Z,0.00
2017-11-07T00:25:48.752Z,0.00
2017-11-07T00:26:48.765Z,0.00
2017-11-07T00:27:48.757Z,0.00
2017-11-07T00:28:48.744Z,0.00
2017-11-07T00:29:48.735Z,0.00
2017-11-07T00:30:48.735Z,0.00
2017-11-07T00:31:48.733Z,0.00
2017-11-07T00:32:48.730Z,0.00
2017-11-07T00:33:48.725Z,0.00
2017-11-07T00:34:48.721Z,0.00
2017-11-07T00:35:48.718Z,0.00
2017-11-07T00:36:48.711Z,0.00
2017-11-07T00:37:48.708Z,0.00
2017-11-07T00:38:48.703Z,0.00
2017-11-07T00:39:48.701Z,0.00
2017-11-07T00:40:48.698Z,0.00
2017-11-07T00:41:48.693Z,0.00
2017-11-07T00:42:48.688Z,0.00
2017-11-07T00:43:48.693Z,0.00
2017-11-07T00:44:48.684Z,0.00
2017-11-07T00:45:48.682Z,0.00
2017-11-07T00:46:48.671Z,0.00
2017-11-07T00:47:48.674Z,0.00
2017-11-07T00:48:48.667Z,0.00
2017-11-07T00:49:48.659Z,0.00
2017-11-07T00:50:48.657Z,0.00
2017-11-07T00:51:48.653Z,0.00
2017-11-07T00:52:48.654Z,0.00
2017-11-07T00:53:48.646Z,0.00
2017-11-07T00:54:48.644Z,0.00
2017-11-07T00:55:48.639Z,0.00
2017-11-07T00:56:48.637Z,0.00
2017-11-07T00:57:48.632Z,0.00
2017-11-07T00:58:48.628Z,0.00
2017-11-07T00:59:48.625Z,0.00
2017-11-07T01:01:00.427Z,0.00
2017-11-07T01:02:41.998Z,0.00
2017-11-07T01:03:41.979Z,0.00
2017-11-07T01:04:41.975Z,0.00
2017-11-07T01:05:41.971Z,0.00
2017-11-07T01:06:41.968Z,0.00
2017-11-07T01:07:41.964Z,0.00
2017-11-07T01:08:41.993Z,0.00
2017-11-07T01:09:41.954Z,0.00
2017-11-07T01:10:41.953Z,0.00
2017-11-07T01:11:41.944Z,0.00
2017-11-07T01:12:41.942Z,0.00
2017-11-07T01:13:41.937Z,0.00
2017-11-07T01:14:41.933Z,0.00
2017-11-07T01:15:41.936Z,0.00
2017-11-07T01:16:41.932Z,0.00
2017-11-07T01:17:41.921Z,0.00
2017-11-07T01:18:41.918Z,0.00
2017-11-07T01:19:41.922Z,0.00
2017-11-07T01:20:41.907Z,0.00
2017-11-07T01:21:41.905Z,0.00
2017-11-07T01:22:41.904Z,0.00
2017-11-07T01:23:41.901Z,0.00
2017-11-07T01:24:41.894Z,0.00
2017-11-07T01:25:41.891Z,0.00
2017-11-07T01:26:41.894Z,0.00
2017-11-07T01:27:41.884Z,0.00
2017-11-07T01:28:41.880Z,0.00
2017-11-07T01:29:41.875Z,0.00
2017-11-07T01:30:41.873Z,0.00
2017-11-07T01:31:41.869Z,0.00
2017-11-07T01:32:41.864Z,0.00
2017-11-07T01:33:41.856Z,0.00
2017-11-07T01:34:41.853Z,0.00
2017-11-07T01:35:41.859Z,0.00
2017-11-07T01:36:41.849Z,0.00
2017-11-07T01:37:41.842Z,0.00
2017-11-07T01:38:41.839Z,0.00
2017-11-07T01:39:41.833Z,0.00
2017-11-07T01:40:41.835Z,0.00
2017-11-07T01:41:41.830Z,0.00
2017-11-07T01:42:41.824Z,0.00
2017-11-07T01:43:41.822Z,0.00
2017-11-07T01:44:41.816Z,0.00
2017-11-07T01:45:41.821Z,0.00
2017-11-07T01:46:41.804Z,0.00
2017-11-07T01:47:41.802Z,0.00
2017-11-07T01:48:41.796Z,0.00
2017-11-07T01:49:41.796Z,0.00
2017-11-07T01:50:41.792Z,0.00
2017-11-07T01:51:41.789Z,0.00
2017-11-07T01:52:41.784Z,0.00
2017-11-07T01:53:41.782Z,0.00
2017-11-07T01:54:41.779Z,0.00
2017-11-07T01:55:41.770Z,0.00
2017-11-07T01:56:41.768Z,0.00
2017-11-07T01:57:41.763Z,0.00
2017-11-07T01:58:41.760Z,0.00
2017-11-07T01:59:41.751Z,0.00
2017-11-07T02:00:41.748Z,0.00
2017-11-07T02:01:41.748Z,0.00
2017-11-07T02:02:41.747Z,0.00
2017-11-07T02:03:41.741Z,0.00
2017-11-07T02:04:41.734Z,0.00
2017-11-07T02:05:41.731Z,0.00
2017-11-07T02:06:41.724Z,0.00
2017-11-07T02:07:41.724Z,0.00
2017-11-07T02:08:41.716Z,0.00
2017-11-07T02:09:41.715Z,0.00
2017-11-07T02:10:41.709Z,0.00
2017-11-07T02:11:41.718Z,0.00
2017-11-07T02:12:41.704Z,0.00
2017-11-07T02:13:41.699Z,0.00
2017-11-07T02:14:41.692Z,0.00
2017-11-07T02:15:41.692Z,0.00
2017-11-07T02:16:41.699Z,0.00
2017-11-07T02:17:41.680Z,0.00
2017-11-07T02:18:41.676Z,0.00
2017-11-07T02:19:41.678Z,0.00
2017-11-07T02:20:41.666Z,0.00
2017-11-07T02:21:41.667Z,0.00
2017-11-07T02:22:41.664Z,0.00
2017-11-07T02:23:41.659Z,0.00
2017-11-07T02:24:41.654Z,0.00
2017-11-07T02:25:41.647Z,0.00
2017-11-07T02:26:41.645Z,0.00
2017-11-07T02:27:41.658Z,0.00
2017-11-07T02:28:41.641Z,0.00
2017-11-07T02:29:41.631Z,0.00
2017-11-07T02:30:41.637Z,0.00
2017-11-07T02:31:41.620Z,0.00
2017-11-07T02:32:41.629Z,0.00
2017-11-07T02:33:41.615Z,0.00
2017-11-07T02:34:41.614Z,0.00
2017-11-07T02:35:41.607Z,0.00
2017-11-07T02:36:41.601Z,0.00
2017-11-07T02:37:41.598Z,0.00
2017-11-07T02:38:41.595Z,0.00
2017-11-07T02:39:41.595Z,0.00
2017-11-07T02:40:41.588Z,0.00
2017-11-07T02:41:41.582Z,0.00
2017-11-07T02:42:41.580Z,0.00
2017-11-07T02:43:41.573Z,0.00
2017-11-07T02:44:41.570Z,0.00
2017-11-07T02:45:41.563Z,0.00
2017-11-07T02:46:41.559Z,0.00
2017-11-07T02:47:41.557Z,0.00
2017-11-07T02:48:41.552Z,0.00
2017-11-07T02:49:41.547Z,0.00
2017-11-07T02:50:41.550Z,0.00
2017-11-07T02:51:41.536Z,0.00
2017-11-07T02:52:41.535Z,0.00
2017-11-07T02:53:41.530Z,0.00
2017-11-07T02:54:41.531Z,0.00
2017-11-07T02:55:41.524Z,0.00
2017-11-07T02:56:41.523Z,0.00
2017-11-07T02:57:41.519Z,0.00
2017-11-07T02:58:41.509Z,0.00
2017-11-07T02:59:41.505Z,0.00
2017-11-07T03:00:41.500Z,0.00
2017-11-07T03:01:41.497Z,0.00
2017-11-07T03:02:41.492Z,0.00
2017-11-07T03:03:41.490Z,0.00
2017-11-07T03:04:41.483Z,0.00
2017-11-07T03:05:41.483Z,0.00
2017-11-07T03:06:41.476Z,0.00
2017-11-07T03:07:41.472Z,0.00
2017-11-07T03:08:41.470Z,0.00
2017-11-07T03:09:41.460Z,0.00
2017-11-07T03:10:41.460Z,0.00
2017-11-07T03:11:41.453Z,0.00
2017-11-07T03:12:41.448Z,0.00
2017-11-07T03:13:41.447Z,0.00
2017-11-07T03:14:41.444Z,0.00
2017-11-07T03:15:41.440Z,0.00
2017-11-07T03:16:41.433Z,0.00
2017-11-07T03:17:41.426Z,0.00
2017-11-07T03:18:41.428Z,0.00
2017-11-07T03:19:41.419Z,0.00
2017-11-07T03:20:41.436Z,0.00
2017-11-07T03:21:41.411Z,0.00
2017-11-07T03:22:41.412Z,0.00
2017-11-07T03:23:41.403Z,0.00
2017-11-07T03:24:41.404Z,0.00
2017-11-07T03:25:41.391Z,0.00
2017-11-07T03:26:41.387Z,0.00
2017-11-07T03:27:41.384Z,0.00
2017-11-07T03:28:41.381Z,0.00
2017-11-07T03:29:41.375Z,0.00
2017-11-07T03:30:41.379Z,0.00
2017-11-07T03:31:41.366Z,0.00
2017-11-07T03:32:41.362Z,0.00
2017-11-07T03:33:41.370Z,0.00
2017-11-07T03:34:41.353Z,0.00
2017-11-07T03:35:41.350Z,0.00
2017-11-07T03:36:41.343Z,0.00
2017-11-07T03:37:41.343Z,0.00
2017-11-07T03:38:41.337Z,0.00
2017-11-07T03:39:41.338Z,0.00
2017-11-07T03:40:41.329Z,0.00
2017-11-07T03:41:41.325Z,0.00
2017-11-07T03:42:41.328Z,0.00
2017-11-07T03:43:41.316Z,0.00
2017-11-07T03:44:41.315Z,0.00
2017-11-07T03:45:41.306Z,0.00
2017-11-07T03:46:41.301Z,0.00
2017-11-07T03:47:41.306Z,0.00
2017-11-07T03:48:41.297Z,0.00
2017-11-07T03:49:41.293Z,0.00
2017-11-07T03:50:41.290Z,0.00
2017-11-07T03:51:41.286Z,0.00
2017-11-07T03:52:41.296Z,0.00
2017-11-07T03:53:41.274Z,0.00
2017-11-07T03:54:41.282Z,0.00
2017-11-07T03:55:41.269Z,0.00
2017-11-07T03:56:41.266Z,0.00
2017-11-07T03:57:41.259Z,0.00
2017-11-07T03:58:41.267Z,0.00
2017-11-07T03:59:41.250Z,0.00
2017-11-07T04:00:41.247Z,0.00
2017-11-07T04:01:41.244Z,0.00
2017-11-07T04:02:41.240Z,0.00
2017-11-07T04:03:41.234Z,0.00
2017-11-07T04:04:41.249Z,0.00
2017-11-07T04:05:41.232Z,0.00
2017-11-07T04:06:41.222Z,0.00
2017-11-07T04:07:41.216Z,0.00
2017-11-07T04:08:41.213Z,0.00
2017-11-07T04:09:41.209Z,0.00
2017-11-07T04:10:41.209Z,0.00
2017-11-07T04:11:41.201Z,0.00
2017-11-07T04:12:41.196Z,0.00
2017-11-07T04:13:41.188Z,0.00
2017-11-07T04:14:41.209Z,0.00
2017-11-07T04:15:41.183Z,0.00
2017-11-07T04:16:41.180Z,0.00
2017-11-07T04:17:41.174Z,0.00
2017-11-07T04:18:41.174Z,0.00
2017-11-07T04:19:41.184Z,0.00
2017-11-07T04:20:41.165Z,0.00
2017-11-07T04:21:41.158Z,0.00
2017-11-07T04:22:41.156Z,0.00
2017-11-07T04:23:41.150Z,0.00
2017-11-07T04:24:41.148Z,0.00
2017-11-07T04:25:41.141Z,0.00
2017-11-07T04:26:41.140Z,0.00
2017-11-07T04:27:41.133Z,0.00
2017-11-07T04:28:41.129Z,0.00
2017-11-07T04:29:41.127Z,0.00
2017-11-07T04:30:41.122Z,0.00
2017-11-07T04:31:41.117Z,0.00
2017-11-07T04:32:41.114Z,0.00
2017-11-07T04:33:41.114Z,0.00
2017-11-07T04:34:41.107Z,0.00
2017-11-07T04:35:41.102Z,0.00
2017-11-07T04:36:41.098Z,0.00
2017-11-07T04:37:41.102Z,0.00
2017-11-07T04:38:41.092Z,0.00
2017-11-07T04:39:41.087Z,0.00
2017-11-07T04:40:41.080Z,0.00
2017-11-07T04:41:41.077Z,0.00
2017-11-07T04:42:41.076Z,0.00
2017-11-07T04:43:41.102Z,0.00
2017-11-07T04:44:41.065Z,0.00
2017-11-07T04:45:41.061Z,0.00
2017-11-07T04:46:41.059Z,0.00
2017-11-07T04:47:41.054Z,0.00
2017-11-07T04:48:41.051Z,0.00
2017-11-07T04:49:41.061Z,0.00
2017-11-07T04:50:41.051Z,0.00
2017-11-07T04:51:41.035Z,0.00
2017-11-07T04:52:41.031Z,0.00
2017-11-07T04:53:41.029Z,0.00
2017-11-07T04:54:41.027Z,0.00
2017-11-07T04:55:41.025Z,0.00
2017-11-07T04:56:41.018Z,0.00
2017-11-07T04:57:41.016Z,0.00
2017-11-07T04:58:41.009Z,0.00
2017-11-07T04:59:41.002Z,0.00
2017-11-07T05:00:40.997Z,0.00
2017-11-07T05:01:40.998Z,0.00
2017-11-07T05:02:40.990Z,0.00
2017-11-07T05:03:40.994Z,0.00
2017-11-07T05:04:40.985Z,0.00
2017-11-07T05:05:40.984Z,0.00
2017-11-07T05:06:40.978Z,0.00
2017-11-07T05:07:40.973Z,0.00
2017-11-07T05:08:40.988Z,0.00
2017-11-07T05:09:40.964Z,0.00
2017-11-07T05:10:40.964Z,0.00
2017-11-07T05:11:40.962Z,0.00
2017-11-07T05:12:40.952Z,0.00
2017-11-07T05:13:40.949Z,0.00
2017-11-07T05:14:40.949Z,0.00
2017-11-07T05:15:40.943Z,0.00
2017-11-07T05:16:40.940Z,0.00
2017-11-07T05:17:40.937Z,0.00
2017-11-07T05:18:40.926Z,0.00
2017-11-07T05:19:40.946Z,0.00
2017-11-07T05:20:40.919Z,0.00
2017-11-07T05:21:40.916Z,0.00
2017-11-07T05:22:40.953Z,0.00
2017-11-07T05:23:40.911Z,0.00
2017-11-07T05:24:40.908Z,0.00
2017-11-07T05:25:40.900Z,0.00
2017-11-07T05:26:40.893Z,0.00
2017-11-07T05:27:40.898Z,0.00
2017-11-07T05:28:40.884Z,0.00
2017-11-07T05:29:40.885Z,0.00
2017-11-07T05:30:40.882Z,0.00
2017-11-07T05:31:40.875Z,0.00
2017-11-07T05:32:40.872Z,0.00
2017-11-07T05:33:40.873Z,0.00
2017-11-07T05:34:40.866Z,0.00
2017-11-07T05:35:40.874Z,0.00
2017-11-07T05:36:40.859Z,0.00
2017-11-07T05:37:40.848Z,0.00
2017-11-07T05:38:40.856Z,0.00
2017-11-07T05:39:40.845Z,0.00
2017-11-07T05:40:40.841Z,0.00
2017-11-07T05:41:40.837Z,0.00
2017-11-07T05:42:40.834Z,0.00
2017-11-07T05:43:40.833Z,0.00
2017-11-07T05:44:40.828Z,0.00
2017-11-07T05:45:40.823Z,0.00
2017-11-07T05:46:40.825Z,0.00
2017-11-07T05:47:40.816Z,0.00
2017-11-07T05:48:40.810Z,0.00
2017-11-07T05:49:40.806Z,0.00
2017-11-07T05:50:40.802Z,0.00
2017-11-07T05:51:40.797Z,0.00
2017-11-07T05:52:40.794Z,0.00
2017-11-07T05:53:40.791Z,0.00
2017-11-07T05:54:40.788Z,0.00
2017-11-07T05:55:40.800Z,0.00
2017-11-07T05:56:40.781Z,0.00
2017-11-07T05:57:40.775Z,0.00
2017-11-07T05:58:40.922Z,0.00
2017-11-07T05:59:40.771Z,0.00
2017-11-07T06:00:40.763Z,0.00
2017-11-07T06:01:40.758Z,0.00
2017-11-07T06:02:40.758Z,0.00
2017-11-07T06:03:40.751Z,0.00
2017-11-07T06:04:40.751Z,0.00
2017-11-07T06:05:40.770Z,0.00
2017-11-07T06:06:40.750Z,0.00
2017-11-07T06:07:40.739Z,0.00
2017-11-07T06:08:40.739Z,0.00
2017-11-07T06:09:40.757Z,0.00
2017-11-07T06:10:40.730Z,0.00
2017-11-07T06:11:40.733Z,0.00
2017-11-07T06:12:40.719Z,0.00
2017-11-07T06:13:40.723Z,0.00
2017-11-07T06:14:40.709Z,0.00
2017-11-07T06:15:40.704Z,0.00
2017-11-07T06:16:40.701Z,0.00
2017-11-07T06:17:40.713Z,0.00
2017-11-07T06:18:40.700Z,0.00
2017-11-07T06:19:40.702Z,0.00
2017-11-07T06:20:40.692Z,5.63
2017-11-07T06:21:40.682Z,5.63
2017-11-07T06:22:40.682Z,5.63
2017-11-07T06:23:40.676Z,5.63
2017-11-07T06:24:40.676Z,5.63
2017-11-07T06:25:40.670Z,5.63
2017-11-07T06:26:40.674Z,5.63
2017-11-07T06:27:40.660Z,5.63
2017-11-07T06:28:40.659Z,5.63
2017-11-07T06:29:40.660Z,5.63
2017-11-07T06:30:40.654Z,5.63
2017-11-07T06:31:40.657Z,5.63
2017-11-07T06:32:40.651Z,5.63
2017-11-07T06:33:40.647Z,5.63
2017-11-07T06:34:40.642Z,11.25
2017-11-07T06:35:40.639Z,11.25
2017-11-07T06:36:40.636Z,11.25
2017-11-07T06:37:40.633Z,11.25
2017-11-07T06:38:40.626Z,11.25
2017-11-07T06:39:40.622Z,11.25
2017-11-07T06:40:40.617Z,16.88
2017-11-07T06:41:40.628Z,16.88
2017-11-07T06:42:40.611Z,16.88
2017-11-07T06:43:40.609Z,16.88
2017-11-07T06:44:40.602Z,16.88
2017-11-07T06:45:40.602Z,16.88
2017-11-07T06:46:40.630Z,16.88
2017-11-07T06:47:40.594Z,16.88
2017-11-07T06:48:40.610Z,16.88
2017-11-07T06:49:40.590Z,16.88
2017-11-07T06:50:40.600Z,16.88
2017-11-07T06:51:40.587Z,16.88
2017-11-07T06:52:40.586Z,22.50
2017-11-07T06:53:40.825Z,22.50
2017-11-07T06:54:40.573Z,22.50
2017-11-07T06:55:40.561Z,22.50
2017-11-07T06:56:40.561Z,22.50
2017-11-07T06:57:40.559Z,28.13
2017-11-07T06:58:40.556Z,28.13
2017-11-07T06:59:40.553Z,28.13
2017-11-07T07:00:40.547Z,33.75
2017-11-07T07:01:40.547Z,33.75
2017-11-07T07:02:40.542Z,33.75
2017-11-07T07:03:40.534Z,33.75
2017-11-07T07:04:40.556Z,39.38
2017-11-07T07:05:40.530Z,33.75
2017-11-07T07:06:40.528Z,33.75
2017-11-07T07:07:40.525Z,39.38
2017-11-07T07:08:40.525Z,39.38
2017-11-07T07:09:40.518Z,39.38
2017-11-07T07:10:40.512Z,45.00
2017-11-07T07:11:40.516Z,45.00
2017-11-07T07:12:40.506Z,50.63
2017-11-07T07:13:40.505Z,50.63
2017-11-07T07:14:40.502Z,56.25
2017-11-07T07:15:40.505Z,56.25
2017-11-07T07:16:40.490Z,67.50
2017-11-07T07:17:40.484Z,67.50
2017-11-07T07:18:40.488Z,67.50
2017-11-07T07:19:40.481Z,67.50
2017-11-07T07:20:40.492Z,67.50
2017-11-07T07:21:40.504Z,67.50
2017-11-07T07:22:40.477Z,67.50
2017-11-07T07:23:40.539Z,61.88
2017-11-07T07:24:40.474Z,67.50
2017-11-07T07:25:40.494Z,61.88
2017-11-07T07:26:40.462Z,61.88
2017-11-07T07:27:40.455Z,67.50
2017-11-07T07:28:41.125Z,61.88
2017-11-07T07:29:40.731Z,56.25
2017-11-07T07:30:40.447Z,61.88
2017-11-07T07:31:40.519Z,61.88
2017-11-07T07:32:40.472Z,61.88
2017-11-07T07:33:40.467Z,67.50
2017-11-07T07:34:40.431Z,67.50
2017-11-07T07:35:40.441Z,61.88
2017-11-07T07:36:40.430Z,61.88
2017-11-07T07:37:40.431Z,67.50
2017-11-07T07:38:40.419Z,56.25
2017-11-07T07:39:40.420Z,56.25
2017-11-07T07:40:40.411Z,56.25
2017-11-07T07:41:40.407Z,56.25
2017-11-07T07:42:40.402Z,56.25
2017-11-07T07:43:40.403Z,67.50
2017-11-07T07:44:40.405Z,73.13
2017-11-07T07:45:40.411Z,73.13
2017-11-07T07:46:40.399Z,90.00
2017-11-07T07:47:40.385Z,84.38
2017-11-07T07:48:40.390Z,95.63
2017-11-07T07:49:40.387Z,95.63
2017-11-07T07:50:40.394Z,106.88
2017-11-07T07:51:40.375Z,112.50
2017-11-07T07:52:40.376Z,118.13
2017-11-07T07:53:40.371Z,118.13
2017-11-07T07:54:40.368Z,118.13
2017-11-07T07:55:40.370Z,123.75
2017-11-07T07:56:40.368Z,129.38
2017-11-07T07:57:40.356Z,140.63
2017-11-07T07:58:40.356Z,140.63
2017-11-07T07:59:40.369Z,146.25
2017-11-07T08:00:40.344Z,140.63
2017-11-07T08:01:40.373Z,151.88
2017-11-07T08:02:40.350Z,146.25
2017-11-07T08:03:40.332Z,157.50
2017-11-07T08:04:40.338Z,163.13
2017-11-07T08:05:40.352Z,180.00
2017-11-07T08:06:40.329Z,196.88
2017-11-07T08:07:40.330Z,196.88
2017-11-07T08:08:40.319Z,202.50
2017-11-07T08:09:40.353Z,196.88
2017-11-07T08:10:40.336Z,185.63
2017-11-07T08:11:40.315Z,185.63
2017-11-07T08:12:40.352Z,168.75
2017-11-07T08:13:40.306Z,174.38
2017-11-07T08:14:40.308Z,202.50
2017-11-07T08:15:40.302Z,219.38
2017-11-07T08:16:40.297Z,230.63
2017-11-07T08:17:40.306Z,225.00
2017-11-07T08:18:40.289Z,208.13
2017-11-07T08:19:40.305Z,225.00
2017-11-07T08:20:40.296Z,247.50
2017-11-07T08:21:40.284Z,258.75
2017-11-07T08:22:40.280Z,264.38
2017-11-07T08:23:40.272Z,275.63
2017-11-07T08:24:40.279Z,286.88
2017-11-07T08:25:40.275Z,275.63
2017-11-07T08:26:40.280Z,292.50
2017-11-07T08:27:40.271Z,286.88
2017-11-07T08:28:40.270Z,315.00
2017-11-07T08:29:40.266Z,320.63
2017-11-07T08:30:40.262Z,320.63
2017-11-07T08:31:40.250Z,331.88
2017-11-07T08:32:40.253Z,348.75
2017-11-07T08:33:40.250Z,348.75
2017-11-07T08:34:40.266Z,348.75
2017-11-07T08:35:40.241Z,337.50
2017-11-07T08:36:40.242Z,360.00
2017-11-07T08:37:40.254Z,331.88
2017-11-07T08:38:40.252Z,275.63
2017-11-07T08:39:40.233Z,236.25
2017-11-07T08:40:40.229Z,241.88
2017-11-07T08:41:40.235Z,258.75
2017-11-07T08:42:40.284Z,230.63
2017-11-07T08:43:40.265Z,236.25
2017-11-07T08:44:40.223Z,258.75
2017-11-07T08:45:40.227Z,225.00
2017-11-07T08:46:40.222Z,213.75
2017-11-07T08:47:40.213Z,196.88
2017-11-07T08:48:40.211Z,230.63
2017-11-07T08:49:40.213Z,213.75
2017-11-07T08:50:40.205Z,185.63
2017-11-07T08:51:40.217Z,180.00
2017-11-07T08:52:40.239Z,208.13
2017-11-07T08:53:40.199Z,185.63
2017-11-07T08:54:40.204Z,196.88
2017-11-07T08:55:40.204Z,191.25
2017-11-07T08:56:40.193Z,208.13
2017-11-07T08:57:40.194Z,213.75
2017-11-07T08:58:40.200Z,225.00
2017-11-07T08:59:40.186Z,230.63
2017-11-07T09:00:40.217Z,241.88
2017-11-07T09:01:40.195Z,236.25
2017-11-07T09:02:40.180Z,225.00
2017-11-07T09:03:40.176Z,236.25
2017-11-07T09:04:40.185Z,230.63
2017-11-07T09:05:40.180Z,253.13
2017-11-07T09:06:40.167Z,253.13
2017-11-07T09:07:40.171Z,264.38
2017-11-07T09:08:40.179Z,247.50
2017-11-07T09:09:40.164Z,258.75
2017-11-07T09:10:40.166Z,298.13
2017-11-07T09:11:40.212Z,315.00
2017-11-07T09:12:40.154Z,320.63
2017-11-07T09:13:40.161Z,309.38
2017-11-07T09:14:40.185Z,292.50
2017-11-07T09:15:40.196Z,258.75
2017-11-07T09:16:40.159Z,241.88
2017-11-07T09:17:40.152Z,247.50
2017-11-07T09:18:40.142Z,264.38
2017-11-07T09:19:40.138Z,253.13
2017-11-07T09:20:40.141Z,247.50
2017-11-07T09:21:40.132Z,258.75
2017-11-07T09:22:40.133Z,275.63
2017-11-07T09:23:40.138Z,264.38
2017-11-07T09:24:40.131Z,315.00
2017-11-07T09:25:40.155Z,354.38
2017-11-07T09:26:40.141Z,360.00
2017-11-07T09:27:40.123Z,376.88
2017-11-07T09:28:40.120Z,365.63
2017-11-07T09:29:40.142Z,393.75
2017-11-07T09:30:40.117Z,399.38
2017-11-07T09:31:40.119Z,388.13
2017-11-07T09:32:40.116Z,382.50
2017-11-07T09:33:40.118Z,382.50
2017-11-07T09:34:40.126Z,348.75
2017-11-07T09:35:40.103Z,337.50
2017-11-07T09:36:40.102Z,354.38
2017-11-07T09:37:40.102Z,354.38
2017-11-07T09:38:40.098Z,365.63
2017-11-07T09:39:40.090Z,405.00
2017-11-07T09:40:40.106Z,388.13
2017-11-07T09:41:40.089Z,416.25
2017-11-07T09:42:40.094Z,438.75
2017-11-07T09:43:40.094Z,450.00
2017-11-07T09:44:40.093Z,450.00
2017-11-07T09:45:40.084Z,450.00
2017-11-07T09:46:40.082Z,450.00
2017-11-07T09:47:40.084Z,455.63
2017-11-07T09:48:40.076Z,472.50
2017-11-07T09:49:40.073Z,483.75
2017-11-07T09:50:40.091Z,489.38
2017-11-07T09:51:40.070Z,483.75
2017-11-07T09:52:40.073Z,495.00
2017-11-07T09:53:40.074Z,495.00
2017-11-07T09:54:40.072Z,489.38
2017-11-07T09:55:40.059Z,478.13
2017-11-07T09:56:40.061Z,466.88
2017-11-07T09:57:40.062Z,461.25
2017-11-07T09:58:40.065Z,450.00
2017-11-07T09:59:40.063Z,438.75
2017-11-07T10:00:40.054Z,427.50
2017-11-07T10:01:40.054Z,421.88
2017-11-07T10:02:40.056Z,438.75
2017-11-07T10:03:40.053Z,444.38
2017-11-07T10:04:40.052Z,461.25
2017-11-07T10:05:40.052Z,455.63
2017-11-07T10:06:40.050Z,427.50
2017-11-07T10:07:40.039Z,421.88
2017-11-07T10:08:40.046Z,433.13
2017-11-07T10:09:40.042Z,416.25
2017-11-07T10:10:40.066Z,416.25
2017-11-07T10:11:40.040Z,450.00
2017-11-07T10:12:40.041Z,444.38
2017-11-07T10:13:40.038Z,433.13
2017-11-07T10:14:40.033Z,416.25
2017-11-07T10:15:40.040Z,421.88
2017-11-07T10:16:40.037Z,444.38
2017-11-07T10:17:40.033Z,427.50
2017-11-07T10:18:40.029Z,416.25
2017-11-07T10:19:40.030Z,427.50
2017-11-07T10:20:40.027Z,427.50
2017-11-07T10:21:40.026Z,438.75
2017-11-07T10:22:40.026Z,450.00
2017-11-07T10:23:40.030Z,478.13
2017-11-07T10:24:40.021Z,500.63
2017-11-07T10:25:40.020Z,500.63
2017-11-07T10:26:40.031Z,511.88
2017-11-07T10:27:40.018Z,517.50
2017-11-07T10:28:40.021Z,500.63
2017-11-07T10:29:40.018Z,495.00
2017-11-07T10:30:40.021Z,500.63
2017-11-07T10:31:40.014Z,500.63
2017-11-07T10:32:40.006Z,511.88
2017-11-07T10:33:40.021Z,511.88
2017-11-07T10:34:40.017Z,511.88
2017-11-07T10:35:40.002Z,495.00
2017-11-07T10:36:40.001Z,495.00
2017-11-07T10:37:40.003Z,489.38
2017-11-07T10:38:40.001Z,478.13
2017-11-07T10:39:40.005Z,506.25
2017-11-07T10:40:39.992Z,528.75
2017-11-07T10:41:39.994Z,534.38
2017-11-07T10:42:40.005Z,534.38
2017-11-07T10:43:40.000Z,523.13
2017-11-07T10:44:39.999Z,534.38
2017-11-07T10:45:40.000Z,540.00
2017-11-07T10:46:39.995Z,528.75
2017-11-07T10:47:39.987Z,511.88
2017-11-07T10:48:39.984Z,500.63
2017-11-07T10:49:39.984Z,489.38
2017-11-07T10:50:39.989Z,410.63
2017-11-07T10:51:40.003Z,348.75
2017-11-07T10:52:40.004Z,348.75
2017-11-07T10:53:39.973Z,343.13
2017-11-07T10:54:39.974Z,303.75
2017-11-07T10:55:39.993Z,275.63
2017-11-07T10:56:39.971Z,264.38
2017-11-07T10:57:39.973Z,286.88
2017-11-07T10:58:39.969Z,275.63
2017-11-07T10:59:39.967Z,236.25
2017-11-07T11:00:39.969Z,247.50
2017-11-07T11:01:39.971Z,253.13
2017-11-07T11:02:39.969Z,219.38
2017-11-07T11:03:39.959Z,191.25
2017-11-07T11:04:39.961Z,163.13
2017-11-07T11:05:39.973Z,163.13
2017-11-07T11:06:39.954Z,163.13
2017-11-07T11:07:39.959Z,174.38
2017-11-07T11:08:39.955Z,174.38
2017-11-07T11:09:39.957Z,168.75
2017-11-07T11:10:39.955Z,157.50
2017-11-07T11:11:39.945Z,140.63
2017-11-07T11:12:39.950Z,151.88
2017-11-07T11:13:39.951Z,196.88
2017-11-07T11:14:39.944Z,230.63
2017-11-07T11:15:39.944Z,241.88
2017-11-07T11:16:39.945Z,208.13
2017-11-07T11:17:39.951Z,191.25
2017-11-07T11:18:39.938Z,208.13
2017-11-07T11:19:39.937Z,208.13
2017-11-07T11:20:39.935Z,202.50
2017-11-07T11:21:39.946Z,208.13
2017-11-07T11:22:39.941Z,213.75
2017-11-07T11:23:39.933Z,236.25
2017-11-07T11:24:39.944Z,286.88
2017-11-07T11:25:39.928Z,309.38
2017-11-07T11:26:39.924Z,292.50
2017-11-07T11:27:39.916Z,309.38
2017-11-07T11:28:39.913Z,258.75
2017-11-07T11:29:39.914Z,236.25
2017-11-07T11:30:39.941Z,225.00
2017-11-07T11:31:39.908Z,219.38
2017-11-07T11:32:39.944Z,236.25
2017-11-07T11:33:39.908Z,241.88
2017-11-07T11:34:39.908Z,253.13
2017-11-07T11:35:39.907Z,286.88
2017-11-07T11:36:39.895Z,292.50
2017-11-07T11:37:39.910Z,298.13
2017-11-07T11:38:39.917Z,331.88
2017-11-07T11:39:39.946Z,354.38
2017-11-07T11:40:39.928Z,360.00
2017-11-07T11:41:39.889Z,376.88
2017-11-07T11:42:39.901Z,365.63
2017-11-07T11:43:39.877Z,337.50
2017-11-07T11:44:39.885Z,326.25
2017-11-07T11:45:39.884Z,343.13
2017-11-07T11:46:39.882Z,371.25
2017-11-07T11:47:39.874Z,393.75
2017-11-07T11:48:39.879Z,382.50
2017-11-07T11:49:39.872Z,354.38
2017-11-07T11:50:39.871Z,348.75
2017-11-07T11:51:39.863Z,343.13
2017-11-07T11:52:39.871Z,331.88
2017-11-07T11:53:39.861Z,309.38
2017-11-07T11:54:39.862Z,298.13
2017-11-07T11:55:39.863Z,275.63
2017-11-07T11:56:39.857Z,264.38
2017-11-07T11:57:39.852Z,230.63
2017-11-07T11:58:39.852Z,247.50
2017-11-07T11:59:39.859Z,258.75
2017-11-07T12:00:39.846Z,247.50
2017-11-07T12:01:39.848Z,241.88
2017-11-07T12:02:39.843Z,264.38
2017-11-07T12:03:39.859Z,264.38
2017-11-07T12:04:39.843Z,258.75
2017-11-07T12:05:39.835Z,247.50
2017-11-07T12:06:39.838Z,247.50
2017-11-07T12:07:39.849Z,253.13
2017-11-07T12:08:39.836Z,258.75
2017-11-07T12:09:39.832Z,253.13
2017-11-07T12:10:39.824Z,236.25
2017-11-07T12:11:39.823Z,236.25
2017-11-07T12:12:39.821Z,241.88
2017-11-07T12:13:39.822Z,236.25
2017-11-07T12:14:39.824Z,230.63
2017-11-07T12:15:39.815Z,230.63
2017-11-07T12:16:39.810Z,225.00
2017-11-07T12:17:39.811Z,225.00
2017-11-07T12:18:39.815Z,236.25
2017-11-07T12:19:39.848Z,236.25
2017-11-07T12:20:39.805Z,236.25
2017-11-07T12:21:39.806Z,230.63
2017-11-07T12:22:39.804Z,219.38
2017-11-07T12:23:39.799Z,213.75
2017-11-07T12:24:39.800Z,213.75
2017-11-07T12:25:39.796Z,196.88
2017-11-07T12:26:39.792Z,196.88
2017-11-07T12:27:39.794Z,202.50
2017-11-07T12:28:39.787Z,213.75
2017-11-07T12:29:39.795Z,191.25
2017-11-07T12:30:39.788Z,213.75
2017-11-07T12:31:39.795Z,208.13
2017-11-07T12:32:39.784Z,202.50
2017-11-07T12:33:39.776Z,196.88
2017-11-07T12:34:39.776Z,180.00
2017-11-07T12:35:39.775Z,180.00
2017-11-07T12:36:39.777Z,163.13
2017-11-07T12:37:39.787Z,191.25
2017-11-07T12:38:39.770Z,213.75
2017-11-07T12:39:39.781Z,230.63
2017-11-07T12:40:39.769Z,213.75
2017-11-07T12:41:39.764Z,191.25
2017-11-07T12:42:39.764Z,213.75
2017-11-07T12:43:39.761Z,225.00
2017-11-07T12:44:39.764Z,213.75
2017-11-07T12:45:39.756Z,258.75
2017-11-07T12:46:39.760Z,270.00
2017-11-07T12:47:39.749Z,258.75
2017-11-07T12:48:39.749Z,241.88
2017-11-07T12:49:39.766Z,230.63
2017-11-07T12:50:39.747Z,213.75
2017-11-07T12:51:39.751Z,219.38
2017-11-07T12:52:39.756Z,213.75
2017-11-07T12:53:39.745Z,202.50
2017-11-07T12:54:39.741Z,191.25
2017-11-07T12:55:39.737Z,208.13
2017-11-07T12:56:39.754Z,202.50